Time;durP1;ratioP1;P1;durP2;ratioP2;P2;SDS_P1;SDS_P2;PMS_P1;PMS_P2;Temp;Humidity;BMP_temperature;BMP_pressure;BME280_temperature;BME280_humidity;BME280_pressure;Samples;Min_cycle;Max_cycle;Signal;HPM_P1;HPM_P2
2022/10/23 00:05:40;;;;;;;1.05;0.60;;;;;;;17.35;100.00;101168.13;20886902;28;20486;-75
2022/10/23 00:15:41;;;;;;;1.90;1.08;;;;;;;17.35;100.00;101160.06;20886328;28;20577;-75
2022/10/23 00:25:43;;;;;;;1.30;0.90;;;;;;;17.36;100.00;101166.31;20884517;28;20386;-75
2022/10/23 00:35:44;;;;;;;0.60;0.50;;;;;;;17.36;100.00;101158.25;20885096;28;20524;-75
2022/10/23 00:45:46;;;;;;;0.80;0.70;;;;;;;17.35;100.00;101162.75;20882481;28;20049;-76
2022/10/23 00:55:49;;;;;;;0.50;0.45;;;;;;;17.35;100.00;101167.28;20882503;28;20055;-75
2022/10/23 01:06:02;;;;;;;0.73;0.60;;;;;;;17.35;100.00;101168.13;20881213;28;20060;-75
2022/10/23 01:16:13;;;;;;;0.70;0.50;;;;;;;17.14;100.00;101135.78;20880604;28;20060;-75
2022/10/23 01:26:14;;;;;;;0.70;0.50;;;;;;;17.35;100.00;101152.00;20863018;28;20053;-75
2022/10/23 01:36:17;;;;;;;0.77;0.50;;;;;;;17.35;100.00;101135.84;20879245;28;20048;-76
2022/10/23 01:46:21;;;;;;;0.68;0.55;;;;;;;17.09;100.00;101095.81;20878130;28;20037;-75
2022/10/23 01:56:26;;;;;;;1.27;0.60;;;;;;;17.35;100.00;101132.31;20860854;28;20056;-75
2022/10/23 02:06:28;;;;;;;0.90;0.70;;;;;;;17.34;100.00;101135.97;20877753;28;20215;-75
2022/10/23 02:16:56;;;;;;;1.30;0.50;;;;;;;17.34;100.00;101120.69;20876183;28;20037;-75
2022/10/23 02:27:03;;;;;;;1.10;0.70;;;;;;;17.10;100.00;101076.00;20870664;28;20132;-76
2022/10/23 02:37:05;;;;;;;0.88;0.60;;;;;;;17.34;100.00;101101.00;20875904;28;20422;-75
2022/10/23 02:47:21;;;;;;;0.57;0.50;;;;;;;17.33;100.00;101097.44;20875577;28;20048;-75
2022/10/23 02:57:38;;;;;;;0.98;0.60;;;;;;;17.33;100.00;101080.47;20876724;28;20107;-75
2022/10/23 03:07:40;;;;;;;0.68;0.60;;;;;;;17.07;100.00;101032.34;20874483;28;20045;-75
2022/10/23 03:17:44;;;;;;;0.82;0.63;;;;;;;17.33;100.00;101065.16;20860462;28;20128;-75
2022/10/23 03:27:48;;;;;;;0.63;0.60;;;;;;;17.33;100.00;101050.84;20873116;28;20045;-75
2022/10/23 03:37:50;;;;;;;0.50;0.50;;;;;;;17.32;100.00;101041.91;20887655;28;20049;-75
2022/10/23 03:47:52;;;;;;;0.75;0.50;;;;;;;17.32;100.00;101041.06;20889713;28;20041;-75
2022/10/23 03:57:54;;;;;;;0.95;0.50;;;;;;;17.32;100.00;101041.06;20886346;28;20083;-75
2022/10/23 04:07:56;;;;;;;0.73;0.40;;;;;;;17.30;100.00;101021.53;20901845;28;20055;-75
2022/10/23 04:17:57;;;;;;;0.70;0.50;;;;;;;17.32;100.00;101027.63;20868623;28;20078;-75
2022/10/23 04:27:59;;;;;;;0.52;0.40;;;;;;;17.31;100.00;101013.28;20885852;28;20052;-75
2022/10/23 04:38:04;;;;;;;0.57;0.57;;;;;;;17.31;100.00;101024.06;20899866;28;20068;-75
2022/10/23 04:48:06;;;;;;;0.68;0.43;;;;;;;17.17;100.00;101010.94;20850023;28;20091;-75
2022/10/23 04:58:30;;;;;;;0.70;0.60;;;;;;;17.30;100.00;101022.34;20881939;28;20053;-75
2022/10/23 05:08:32;;;;;;;0.57;0.50;;;;;;;17.30;100.00;101008.91;20897405;28;20099;-75
2022/10/23 05:19:08;;;;;;;0.70;0.60;;;;;;;16.97;100.00;100932.72;20869045;28;20052;-75
2022/10/23 05:29:11;;;;;;;0.70;0.60;;;;;;;17.30;100.00;100981.16;20863815;28;20049;-75
2022/10/23 05:39:13;;;;;;;0.50;0.50;;;;;;;17.29;100.00;100966.84;20852700;28;20044;-75
2022/10/23 05:49:15;;;;;;;1.60;1.10;;;;;;;17.33;100.00;100956.69;20869212;28;20048;-76
2022/10/23 05:59:45;;;;;;;1.38;0.98;;;;;;;17.38;100.00;100960.66;20879123;28;20044;-76
2022/10/23 06:10:05;;;;;;;1.73;0.90;;;;;;;17.05;100.00;100883.69;20877722;28;20049;-76
2022/10/23 06:20:11;;;;;;;1.65;0.90;;;;;;;17.45;100.00;100943.97;20876382;28;20052;-76
2022/10/23 06:30:15;;;;;;;1.65;0.77;;;;;;;17.46;100.00;100946.56;20865914;28;20048;-76
2022/10/23 06:40:20;;;;;;;;;;;;;;;17.47;100.00;100936.66;20887022;28;20474;-76
2022/10/23 06:50:41;;;;;;;1.73;0.93;;;;;;;17.47;100.00;100940.19;20877378;28;19928;-76
2022/10/23 07:00:46;;;;;;;0.80;0.80;;;;;;;17.48;100.00;100954.50;20808215;28;20042;-76
2022/10/23 07:10:48;;;;;;;1.80;0.90;;;;;;;17.50;100.00;100952.53;20878381;28;20052;-76
2022/10/23 07:20:56;;;;;;;1.33;1.00;;;;;;;17.49;100.00;100935.53;20895938;28;20051;-76
2022/10/23 07:30:58;;;;;;;1.40;0.95;;;;;;;17.50;100.00;100928.31;20879918;28;20087;-76
2022/10/23 07:41:15;;;;;;;2.70;1.50;;;;;;;17.51;100.00;100900.41;20886507;28;20053;-76
2022/10/23 07:51:17;;;;;;;2.55;1.20;;;;;;;17.21;100.00;100857.16;20861173;28;20583;-74
2022/10/23 08:01:31;;;;;;;3.33;1.27;;;;;;;17.52;100.00;100899.41;20847155;28;20076;-75
2022/10/23 08:11:36;;;;;;;2.10;1.25;;;;;;;17.38;100.00;100863.78;20833248;28;20053;-75
2022/10/23 08:21:40;;;;;;;2.08;1.02;;;;;;;17.51;100.00;100884.25;20828076;28;20061;-75
2022/10/23 08:31:44;;;;;;;10.20;2.10;;;;;;;17.51;100.00;100868.94;20847592;28;20048;-75
2022/10/23 08:41:57;;;;;;;3.10;1.25;;;;;;;17.53;100.00;100874.22;20841819;28;20054;-76
2022/10/23 08:52:06;;;;;;;3.58;1.38;;;;;;;17.41;100.00;100854.59;20903462;28;20541;-75
2022/10/23 09:02:13;;;;;;;3.35;1.20;;;;;;;17.53;100.00;100861.59;20832459;28;20133;-75
2022/10/23 09:12:17;;;;;;;4.25;1.40;;;;;;;17.45;100.00;100839.00;20850535;28;20574;-75
2022/10/23 09:22:18;;;;;;;3.90;1.40;;;;;;;17.54;100.00;100841.75;20856993;28;20501;-76
2022/10/23 09:32:32;;;;;;;5.95;1.42;;;;;;;17.55;100.00;100823.78;20836502;28;20056;-74
2022/10/23 09:42:33;;;;;;;2.67;1.35;;;;;;;17.58;100.00;100817.25;20830844;28;20509;-75
2022/10/23 09:52:36;;;;;;;1.20;0.88;;;;;;;17.54;100.00;100793.31;20797134;28;20508;-76
2022/10/23 10:02:37;;;;;;;2.60;1.15;;;;;;;17.27;100.00;100741.97;20858867;28;20130;-76
2022/10/23 10:13:05;;;;;;;2.05;1.15;;;;;;;17.53;100.00;100786.22;20858404;28;20056;-76
2022/10/23 10:23:28;;;;;;;1.77;1.02;;;;;;;17.51;100.00;100769.34;20884280;28;20059;-76
2022/10/23 10:33:39;;;;;;;4.95;1.30;;;;;;;17.51;100.00;100755.06;20891401;28;20048;-76
2022/10/23 10:43:48;;;;;;;1.85;1.08;;;;;;;17.46;100.00;100747.38;20894396;28;20045;-76
2022/10/23 10:54:07;;;;;;;1.90;0.98;;;;;;;17.50;100.00;100753.38;20893641;28;20116;-76
2022/10/23 11:04:33;;;;;;;2.90;0.98;;;;;;;17.50;100.00;100718.38;20893026;28;20056;-76
2022/10/23 11:14:35;;;;;;;1.77;0.88;;;;;;;17.43;100.00;100710.00;20906640;28;20131;-76
2022/10/23 11:25:02;;;;;;;1.45;0.77;;;;;;;17.49;100.00;100687.06;20890779;28;20095;-77
2022/10/23 11:35:13;;;;;;;1.40;1.08;;;;;;;17.48;100.00;100632.38;20872211;28;20061;-76
2022/10/23 11:45:36;;;;;;;2.00;1.20;;;;;;;17.32;100.00;100605.19;20887555;28;20064;-76
2022/10/23 11:55:37;;;;;;;1.15;0.98;;;;;;;17.47;100.00;100611.84;20886011;28;20382;-76
2022/10/23 12:05:41;;;;;;;0.88;0.88;;;;;;;17.19;100.00;100536.31;20886032;28;20128;-76
2022/10/23 12:15:52;;;;;;;0.93;0.80;;;;;;;17.47;100.00;100576.84;20886461;28;20127;-76
2022/10/23 12:26:23;;;;;;;1.00;0.73;;;;;;;17.47;100.00;100551.78;20884151;28;20059;-76
2022/10/23 12:36:37;;;;;;;1.23;0.90;;;;;;;17.47;100.00;100517.66;20900271;28;20302;-76
2022/10/23 12:46:41;;;;;;;1.70;0.80;;;;;;;17.25;100.00;100482.00;20884598;28;20413;-75
2022/10/23 12:56:44;;;;;;;1.55;0.80;;;;;;;17.28;100.00;100466.56;20882153;28;20049;-76
2022/10/23 13:06:46;;;;;;;1.58;0.85;;;;;;;17.46;100.00;100467.50;20881465;28;20049;-76
2022/10/23 13:16:57;;;;;;;1.08;0.77;;;;;;;17.46;100.00;100451.34;20880741;28;20111;-76
2022/10/23 13:26:59;;;;;;;1.10;0.70;;;;;;;17.46;100.00;100423.63;20881946;28;20071;-76
2022/10/23 13:37:25;;;;;;;1.25;0.93;;;;;;;17.45;100.00;100403.91;20862457;28;20090;-76
2022/10/23 13:47:26;;;;;;;;;;;;;;;17.46;100.00;100399.41;20846569;28;20080;-75
2022/10/23 13:57:28;;;;;;;0.90;0.60;;;;;;;17.46;100.00;100389.47;20858401;28;19936;-75
2022/10/23 14:07:29;;;;;;;1.23;0.65;;;;;;;17.46;100.00;100375.19;20851128;28;20131;-75
2022/10/23 14:17:31;;;;;;;0.93;0.60;;;;;;;17.45;100.00;100363.53;20848499;28;20494;-75
2022/10/23 14:27:32;;;;;;;1.33;0.93;;;;;;;17.46;100.00;100359.03;20852690;28;20080;-75
2022/10/23 14:37:33;;;;;;;1.67;0.70;;;;;;;17.44;100.00;100329.56;20836204;28;20056;-75
2022/10/23 14:47:35;;;;;;;1.40;0.70;;;;;;;17.46;100.00;100303.34;20843567;28;20489;-75
2022/10/23 14:57:37;;;;;;;0.93;0.77;;;;;;;17.45;100.00;100298.97;20843890;28;20048;-75
2022/10/23 15:07:39;;;;;;;0.77;0.75;;;;;;;17.46;100.00;100254.06;20832079;28;20052;-75
2022/10/23 15:17:41;;;;;;;1.42;0.50;;;;;;;17.45;100.00;100261.28;20845108;28;20504;-75
2022/10/23 15:27:42;;;;;;;0.70;0.68;;;;;;;17.35;100.00;100238.97;20837455;28;20501;-75
2022/10/23 15:37:44;;;;;;;1.15;0.60;;;;;;;17.45;100.00;100244.28;20833652;28;20485;-79
2022/10/23 15:47:46;;;;;;;0.50;0.50;;;;;;;17.45;100.00;100230.81;20857680;28;20058;-75
2022/10/23 15:57:47;;;;;;;0.65;0.50;;;;;;;17.44;100.00;100213.84;20864802;28;20072;-75
2022/10/23 16:07:49;;;;;;;0.95;0.57;;;;;;;17.20;100.00;100161.44;20841651;28;20049;-75
2022/10/23 16:17:50;;;;;;;0.60;0.50;;;;;;;17.44;100.00;100186.94;20777475;28;20091;-75
2022/10/23 16:27:52;;;;;;;1.13;0.63;;;;;;;17.43;100.00;100184.38;20840792;28;20136;-75
2022/10/23 16:37:53;;;;;;;0.50;0.50;;;;;;;17.44;100.00;100184.25;20845214;28;20044;-75
2022/10/23 16:47:56;;;;;;;1.35;0.75;;;;;;;17.42;100.00;100166.56;20828624;28;20406;-75
2022/10/23 16:57:59;;;;;;;0.50;0.50;;;;;;;17.43;100.00;100160.16;20818609;28;20144;-75
2022/10/23 17:08:00;;;;;;;0.50;0.50;;;;;;;17.19;100.00;100097.88;20845603;28;20053;-76
2022/10/23 17:18:02;;;;;;;0.90;0.60;;;;;;;17.18;100.00;100098.88;20849399;28;20490;-75
2022/10/23 17:28:03;;;;;;;0.50;0.50;;;;;;;17.42;100.00;100118.13;20834967;28;20088;-75
2022/10/23 17:38:05;;;;;;;0.60;0.60;;;;;;;17.41;100.00;100125.34;20825907;28;20068;-76
2022/10/23 17:48:07;;;;;;;1.13;0.52;;;;;;;17.42;100.00;100136.97;20835021;28;20068;-75
2022/10/23 17:58:08;;;;;;;1.52;1.15;;;;;;;17.32;100.00;100126.28;20826720;28;20065;-75
2022/10/23 18:08:10;;;;;;;1.23;0.60;;;;;;;17.22;100.00;100111.03;20812606;28;20053;-74
2022/10/23 18:18:11;;;;;;;0.75;0.60;;;;;;;17.42;100.00;100131.56;20809940;28;20168;-75
2022/10/23 18:28:13;;;;;;;0.77;0.57;;;;;;;17.42;100.00;100139.66;20844510;28;20135;-75
2022/10/23 18:38:14;;;;;;;1.27;0.70;;;;;;;17.41;100.00;100109.22;20847169;28;20042;-75
2022/10/23 18:48:16;;;;;;;1.25;0.60;;;;;;;17.42;100.00;100115.44;20855357;28;20260;-75
2022/10/23 18:58:18;;;;;;;1.52;0.60;;;;;;;17.40;100.00;100105.66;20861544;28;20124;-75
2022/10/23 19:08:20;;;;;;;0.70;0.60;;;;;;;17.41;100.00;100101.16;20905980;28;20135;-75
2022/10/23 19:18:22;;;;;;;1.70;0.68;;;;;;;17.42;100.00;100086.69;20891089;28;20517;-75
2022/10/23 19:28:23;;;;;;;0.73;0.60;;;;;;;17.41;100.00;100079.63;20889562;28;20056;-74
2022/10/23 19:38:25;;;;;;;0.40;0.40;;;;;;;17.18;100.00;100026.25;20889630;28;20049;-79
2022/10/23 19:48:26;;;;;;;2.00;0.63;;;;;;;17.40;100.00;100065.31;20888317;28;20052;-74
2022/10/23 19:58:28;;;;;;;1.27;0.68;;;;;;;17.40;100.00;100046.47;20888636;28;20756;-75
2022/10/23 20:08:29;;;;;;;0.50;0.50;;;;;;;17.40;100.00;100067.16;20885685;28;20140;-75
2022/10/23 20:18:35;;;;;;;1.20;0.60;;;;;;;17.22;100.00;100034.88;20884903;28;20052;-74
2022/10/23 20:28:37;;;;;;;0.60;0.60;;;;;;;17.40;100.00;100081.44;20885823;28;20091;-74
2022/10/23 20:38:38;;;;;;;0.57;0.50;;;;;;;17.28;100.00;100060.34;20867049;28;20068;-74
2022/10/23 20:48:41;;;;;;;0.68;0.55;;;;;;;17.40;100.00;100069.84;20884624;28;20444;-75
2022/10/23 20:58:43;;;;;;;0.60;0.60;;;;;;;17.15;100.00;100031.94;20884250;28;20051;-75
2022/10/23 21:08:44;;;;;;;0.52;0.50;;;;;;;17.39;100.00;100069.00;20898064;28;20497;-75
2022/10/23 21:18:46;;;;;;;0.80;0.70;;;;;;;17.40;100.00;100075.25;20879311;28;20437;-75
2022/10/23 21:28:49;;;;;;;1.27;0.60;;;;;;;17.39;100.00;100068.16;20881984;28;20571;-75
2022/10/23 21:39:07;;;;;;;1.17;0.73;;;;;;;17.32;100.00;100050.94;20879563;28;20077;-74
2022/10/23 21:49:10;;;;;;;1.27;0.60;;;;;;;17.39;100.00;100092.38;20880095;28;20466;-74
2022/10/23 21:59:14;;;;;;;0.50;0.47;;;;;;;17.39;100.00;100087.84;20879369;28;20045;-75
2022/10/23 22:09:18;;;;;;;0.70;0.60;;;;;;;17.39;100.00;100085.13;20879500;28;20052;-75
2022/10/23 22:19:21;;;;;;;0.52;0.52;;;;;;;17.40;100.00;100091.38;20877967;28;20094;-74
2022/10/23 22:29:24;;;;;;;1.15;0.90;;;;;;;17.32;100.00;100096.69;20877860;28;20060;-74
2022/10/23 22:39:26;;;;;;;0.50;0.50;;;;;;;17.39;100.00;100105.84;20878119;28;20135;-75
2022/10/23 22:49:27;;;;;;;0.65;0.65;;;;;;;17.39;100.00;100078.94;20877267;28;20052;-75
2022/10/23 22:59:29;;;;;;;0.52;0.50;;;;;;;17.38;100.00;100096.06;20858645;28;20081;-74
2022/10/23 23:09:30;;;;;;;0.70;0.60;;;;;;;17.37;100.00;100097.06;20875525;28;20501;-75
2022/10/23 23:19:32;;;;;;;0.88;0.50;;;;;;;17.25;100.00;100097.28;20875764;28;20041;-75
2022/10/23 23:29:33;;;;;;;0.77;0.50;;;;;;;17.03;100.00;100074.38;20873800;28;20063;-74
2022/10/23 23:39:35;;;;;;;0.50;0.50;;;;;;;17.37;100.00;100130.19;20883453;28;20135;-75
2022/10/23 23:49:36;;;;;;;0.63;0.45;;;;;;;17.28;100.00;100093.44;20886799;28;20053;-74
2022/10/23 23:59:39;;;;;;;0.50;0.50;;;;;;;17.37;100.00;100099.75;20887875;28;20060;-78
